Time;durP1;ratioP1;P1;durP2;ratioP2;P2;SDS_P1;SDS_P2;PMS_P1;PMS_P2;Temp;Humidity;BMP_temperature;BMP_pressure;BME280_temperature;BME280_humidity;BME280_pressure;Samples;Min_cycle;Max_cycle;Signal;HPM_P1;HPM_P2
2022/09/13 00:00:10;;;;;;;10.23;9.23;;;;;23.10;99952.00;;;;2086891;28;20216;-54
2022/09/13 00:01:11;;;;;;;10.13;9.10;;;;;23.00;99953.00;;;;2086929;28;20263;-54
2022/09/13 00:02:11;;;;;;;10.17;9.07;;;;;23.00;99953.00;;;;2087197;28;20868;-54
2022/09/13 00:03:11;;;;;;;10.80;9.80;;;;;23.00;99953.00;;;;2086869;28;20587;-54
2022/09/13 00:04:12;;;;;;;9.63;8.70;;;;;23.00;99952.00;;;;2083934;28;20251;-54
2022/09/13 00:05:12;;;;;;;8.90;7.93;;;;;23.00;99952.00;;;;2094484;28;20311;-53
2022/09/13 00:06:15;;;;;;;10.40;9.30;;;;;23.00;99949.00;;;;2088048;28;20212;-54
2022/09/13 00:07:15;;;;;;;8.98;8.07;;;;;23.10;99968.00;;;;2090635;28;20208;-53
2022/09/13 00:08:15;;;;;;;8.73;7.87;;;;;23.00;99946.00;;;;2094219;28;20219;-54
2022/09/13 00:09:15;;;;;;;9.50;8.60;;;;;23.00;99948.00;;;;2092481;28;20869;-54
2022/09/13 00:10:16;;;;;;;9.00;8.10;;;;;23.00;99931.00;;;;2086276;28;20216;-54
2022/09/13 00:11:18;;;;;;;11.70;8.67;;;;;23.00;99934.00;;;;2085783;28;20219;-54
2022/09/13 00:12:19;;;;;;;9.15;8.18;;;;;23.00;99930.00;;;;2086459;28;20216;-54
2022/09/13 00:13:19;;;;;;;9.03;8.20;;;;;23.00;99935.00;;;;2086384;28;20217;-55
2022/09/13 00:14:19;;;;;;;8.93;8.00;;;;;23.00;99931.00;;;;2086032;28;20220;-55
2022/09/13 00:15:20;;;;;;;9.37;8.50;;;;;23.00;99931.00;;;;2086298;28;20247;-55
2022/09/13 00:16:22;;;;;;;9.30;8.40;;;;;23.00;99929.00;;;;2086542;28;20228;-55
2022/09/13 00:17:22;;;;;;;9.52;8.50;;;;;23.00;99932.00;;;;2085715;28;20235;-56
2022/09/13 00:18:22;;;;;;;9.33;8.43;;;;;23.00;99929.00;;;;2086508;28;20209;-57
2022/09/13 00:19:23;;;;;;;8.77;7.93;;;;;23.00;99932.00;;;;2087195;28;20235;-55
2022/09/13 00:20:23;;;;;;;9.53;8.23;;;;;23.00;99927.00;;;;2086914;28;20259;-55
2022/09/13 00:21:23;;;;;;;9.00;8.10;;;;;23.00;99933.00;;;;2086922;28;20790;-55
2022/09/13 00:22:24;;;;;;;9.40;8.40;;;;;23.00;99923.00;;;;2087082;28;20716;-55
2022/09/13 00:23:24;;;;;;;8.53;7.57;;;;;23.00;99933.00;;;;2077962;28;20213;-55
2022/09/13 00:24:24;;;;;;;8.80;8.00;;;;;23.00;99925.00;;;;2077952;28;20225;-55
2022/09/13 00:25:25;;;;;;;8.83;7.93;;;;;23.00;99925.00;;;;2086922;28;20232;-55
2022/09/13 00:26:26;;;;;;;9.10;8.17;;;;;23.00;99922.00;;;;2086987;28;20216;-54
2022/09/13 00:27:26;;;;;;;8.85;7.80;;;;;23.00;99924.00;;;;2086097;28;20964;-55
2022/09/13 00:28:27;;;;;;;8.77;7.97;;;;;23.00;99921.00;;;;2087131;28;20213;-55
2022/09/13 00:29:27;;;;;;;8.50;7.60;;;;;23.00;99907.00;;;;2086880;28;20231;-55
2022/09/13 00:30:27;;;;;;;8.53;7.73;;;;;23.00;99916.00;;;;2086308;28;20217;-55
2022/09/13 00:31:28;;;;;;;9.90;7.03;;;;;23.00;99910.00;;;;2086428;28;20208;-55
2022/09/13 00:32:28;;;;;;;8.50;7.70;;;;;23.00;99903.00;;;;2087339;28;20328;-55
2022/09/13 00:33:28;;;;;;;8.23;7.43;;;;;23.00;99905.00;;;;2086944;28;20236;-55
2022/09/13 00:34:29;;;;;;;8.27;7.30;;;;;23.00;99908.00;;;;2086703;28;20212;-55
2022/09/13 00:35:30;;;;;;;7.90;7.10;;;;;23.00;99923.00;;;;2090397;28;20289;-55
2022/09/13 00:36:30;;;;;;;7.93;7.20;;;;;23.00;99909.00;;;;2095277;28;20215;-54
2022/09/13 00:37:32;;;;;;;7.50;6.80;;;;;23.00;99910.00;;;;2094353;28;20512;-55
2022/09/13 00:38:36;;;;;;;8.07;7.38;;;;;23.00;99906.00;;;;2095249;28;20230;-54
2022/09/13 00:39:36;;;;;;;8.02;7.32;;;;;23.00;99907.00;;;;2094082;28;20236;-54
2022/09/13 00:40:36;;;;;;;7.30;6.60;;;;;23.00;99907.00;;;;2087168;28;20563;-55
2022/09/13 00:41:37;;;;;;;7.73;6.60;;;;;23.00;99910.00;;;;2086939;28;20603;-54
2022/09/13 00:42:37;;;;;;;7.13;6.43;;;;;23.00;99905.00;;;;2090030;28;20224;-54
2022/09/13 00:43:44;;;;;;;7.70;6.90;;;;;23.00;99904.00;;;;2095239;28;20667;-54
2022/09/13 00:44:59;;;;;;;7.95;7.25;;;;;23.00;99912.00;;;;2093224;28;20216;-55
2022/09/13 00:45:59;;;;;;;8.35;7.18;;;;;23.00;99905.00;;;;2091498;28;20586;-55
2022/09/13 00:47:00;;;;;;;7.70;7.00;;;;;23.00;99902.00;;;;2086059;28;20227;-57
2022/09/13 00:48:01;;;;;;;7.40;6.70;;;;;23.00;99879.00;;;;2085466;28;20270;-56
2022/09/13 00:49:14;;;;;;;7.15;6.45;;;;;23.00;99905.00;;;;2086283;28;20247;-55
2022/09/13 00:50:18;;;;;;;8.55;6.50;;;;;23.00;99907.00;;;;2087995;28;20220;-54
2022/09/13 00:51:18;;;;;;;7.75;7.05;;;;;23.00;99915.00;;;;2095305;28;21004;-55
2022/09/13 00:52:19;;;;;;;6.77;6.17;;;;;23.00;99909.00;;;;2094253;28;20216;-54
2022/09/13 00:53:29;;;;;;;7.05;6.32;;;;;23.00;99907.00;;;;2082840;28;20217;-54
2022/09/13 00:54:32;;;;;;;6.65;5.95;;;;;23.00;99883.00;;;;2078874;28;21134;-54
2022/09/13 00:55:43;;;;;;;6.50;5.90;;;;;23.00;99913.00;;;;2078479;28;20248;-55
2022/09/13 00:56:46;;;;;;;7.03;6.28;;;;;23.00;99907.00;;;;2077955;28;20264;-54
2022/09/13 00:57:46;;;;;;;6.80;6.15;;;;;23.00;99911.00;;;;2085520;28;20228;-55
2022/09/13 00:59:08;;;;;;;6.80;6.10;;;;;23.00;99918.00;;;;2092497;28;20239;-54
2022/09/13 01:00:13;;;;;;;6.05;5.50;;;;;23.00;99914.00;;;;2091405;28;20220;-55
2022/09/13 01:01:14;;;;;;;6.43;5.85;;;;;23.00;99921.00;;;;2077912;28;20588;-54
2022/09/13 01:02:14;;;;;;;6.67;6.07;;;;;23.00;99912.00;;;;2078048;28;20220;-54
2022/09/13 01:03:15;;;;;;;6.50;5.90;;;;;23.00;99910.00;;;;2086293;28;20209;-55
2022/09/13 01:04:16;;;;;;;6.23;5.50;;;;;23.00;99911.00;;;;2086713;28;20235;-54
2022/09/13 01:05:17;;;;;;;6.70;6.03;;;;;23.00;99907.00;;;;2085223;28;20735;-54
2022/09/13 01:06:19;;;;;;;6.60;6.00;;;;;23.00;99906.00;;;;2069595;28;20785;-53
2022/09/13 01:07:20;;;;;;;6.63;5.95;;;;;23.00;99902.00;;;;2069204;28;20226;-53
2022/09/13 01:08:23;;;;;;;7.00;6.30;;;;;23.00;99906.00;;;;2086043;28;20213;-55
2022/09/13 01:09:23;;;;;;;6.13;5.55;;;;;23.00;99900.00;;;;2085999;28;20217;-54
2022/09/13 01:10:25;;;;;;;6.40;5.80;;;;;23.00;99903.00;;;;2078484;28;20217;-54
2022/09/13 01:11:31;;;;;;;6.63;5.95;;;;;23.00;99902.00;;;;2078028;28;20217;-55
2022/09/13 01:12:56;;;;;;;6.30;5.70;;;;;23.00;99895.00;;;;2078442;28;20655;-55
2022/09/13 01:13:57;;;;;;;6.30;5.70;;;;;23.00;99898.00;;;;2086581;28;20720;-54
2022/09/13 01:14:58;;;;;;;5.83;5.23;;;;;23.00;99901.00;;;;2077904;28;20217;-54
2022/09/13 01:15:59;;;;;;;5.35;4.85;;;;;23.00;99895.00;;;;2061215;28;20238;-54
2022/09/13 01:16:59;;;;;;;6.73;6.07;;;;;23.00;99900.00;;;;2085998;28;20213;-54
2022/09/13 01:18:00;;;;;;;6.10;5.50;;;;;23.00;99891.00;;;;2094250;28;20212;-55
2022/09/13 01:19:00;;;;;;;5.53;5.03;;;;;23.00;99902.00;;;;2094582;28;20212;-56
2022/09/13 01:20:00;;;;;;;6.20;5.67;;;;;23.00;99897.00;;;;2094091;28;20234;-54
2022/09/13 01:21:32;;;;;;;5.40;4.90;;;;;23.00;99898.00;;;;2094836;28;20211;-54
2022/09/13 01:22:32;;;;;;;6.38;4.90;;;;;23.00;99901.00;;;;2095089;28;20209;-55
2022/09/13 01:24:08;;;;;;;5.83;5.23;;;;;23.00;99891.00;;;;2096435;28;20217;-55
2022/09/13 01:25:27;;;;;;;5.55;5.05;;;;;23.00;99894.00;;;;2078907;28;20309;-55
2022/09/13 01:26:39;;;;;;;5.30;4.80;;;;;23.00;99892.00;;;;2087224;28;20673;-54
2022/09/13 01:28:10;;;;;;;5.20;4.80;;;;;23.00;99892.00;;;;2089251;28;20252;-55
2022/09/13 01:29:10;;;;;;;5.30;4.68;;;;;23.00;99907.00;;;;2096614;28;20208;-53
2022/09/13 01:30:21;;;;;;;5.70;5.17;;;;;23.00;99890.00;;;;2091138;28;20230;-55
2022/09/13 01:31:30;;;;;;;5.88;5.25;;;;;23.00;99886.00;;;;2094088;28;20306;-54
2022/09/13 01:32:40;;;;;;;5.90;5.40;;;;;23.00;99896.00;;;;2095755;28;20327;-54
2022/09/13 01:33:56;;;;;;;5.95;5.45;;;;;23.00;99891.00;;;;2088545;28;20287;-55
2022/09/13 01:35:22;;;;;;;5.60;5.10;;;;;23.00;99883.00;;;;2088086;28;20704;-54
2022/09/13 01:36:35;;;;;;;5.93;5.32;;;;;23.00;99885.00;;;;2095433;28;20228;-55
2022/09/13 01:37:38;;;;;;;4.80;4.40;;;;;23.00;99886.00;;;;2094740;28;20236;-54
2022/09/13 01:38:53;;;;;;;5.75;5.18;;;;;23.00;99886.00;;;;2095924;28;20246;-54
2022/09/13 01:40:17;;;;;;;6.30;4.75;;;;;23.00;99857.00;;;;2096445;28;20560;-55
2022/09/13 01:41:28;;;;;;;5.40;4.90;;;;;23.00;99907.00;;;;2095323;28;20247;-55
2022/09/13 01:43:02;;;;;;;4.65;4.25;;;;;23.00;99883.00;;;;2091499;28;20277;-54
2022/09/13 01:44:27;;;;;;;5.32;4.82;;;;;23.00;99880.00;;;;2091285;28;20216;-55
2022/09/13 01:45:42;;;;;;;4.70;4.30;;;;;23.00;99878.00;;;;2095663;28;20610;-55
2022/09/13 01:47:05;;;;;;;5.05;4.55;;;;;23.00;99857.00;;;;2095964;28;20235;-54
2022/09/13 01:48:13;;;;;;;6.45;4.82;;;;;23.00;99886.00;;;;2094689;28;20200;-54
2022/09/13 01:49:21;;;;;;;4.75;4.35;;;;;23.00;99887.00;;;;2087962;28;20220;-55
2022/09/13 01:50:32;;;;;;;4.95;4.55;;;;;23.00;99882.00;;;;2085147;28;20663;-55
2022/09/13 01:51:36;;;;;;;5.30;4.80;;;;;23.00;99878.00;;;;2088709;28;20221;-55
2022/09/13 01:52:55;;;;;;;5.28;4.78;;;;;23.00;99872.00;;;;2087391;28;20274;-55
2022/09/13 01:54:06;;;;;;;4.78;4.22;;;;;23.00;99874.00;;;;2090107;28;20220;-54
2022/09/13 01:55:30;;;;;;;4.38;3.97;;;;;23.00;99877.00;;;;2085518;28;20206;-56
2022/09/13 01:56:42;;;;;;;4.90;4.43;;;;;23.00;99878.00;;;;2094696;28;20216;-54
2022/09/13 01:57:48;;;;;;;4.90;4.45;;;;;23.00;99846.00;;;;2094447;28;20307;-54
2022/09/13 01:58:57;;;;;;;4.78;3.78;;;;;23.00;99889.00;;;;2080039;28;20310;-54
2022/09/13 02:00:06;;;;;;;5.00;4.60;;;;;23.00;99876.00;;;;2088507;28;20212;-55
2022/09/13 02:01:18;;;;;;;5.35;4.85;;;;;23.00;99886.00;;;;2095283;28;20632;-56
2022/09/13 02:02:25;;;;;;;5.00;4.50;;;;;23.00;99863.00;;;;2088968;28;20588;-55
2022/09/13 02:03:54;;;;;;;4.78;4.28;;;;;23.00;99879.00;;;;2088519;28;20220;-55
2022/09/13 02:04:58;;;;;;;4.40;4.00;;;;;23.00;99881.00;;;;2088320;28;20695;-54
2022/09/13 02:06:04;;;;;;;5.00;4.50;;;;;23.00;99878.00;;;;2086846;28;20553;-55
2022/09/13 02:07:13;;;;;;;4.30;3.90;;;;;23.00;99911.00;;;;2089266;28;20296;-55
2022/09/13 02:08:20;;;;;;;4.47;4.07;;;;;23.00;99876.00;;;;2091416;28;20681;-54
2022/09/13 02:09:22;;;;;;;4.60;4.20;;;;;23.00;99876.00;;;;2092690;28;20227;-55
2022/09/13 02:10:32;;;;;;;4.28;3.88;;;;;23.00;99886.00;;;;2086979;28;20243;-55
2022/09/13 02:11:32;;;;;;;4.55;3.85;;;;;23.00;99884.00;;;;2081567;28;20214;-54
2022/09/13 02:12:33;;;;;;;4.17;3.80;;;;;23.00;99854.00;;;;2079047;28;20846;-55
2022/09/13 02:13:56;;;;;;;4.30;3.90;;;;;23.00;99888.00;;;;2078800;28;20209;-53
2022/09/13 02:15:04;;;;;;;4.35;3.65;;;;;23.00;99880.00;;;;2093047;28;20216;-55
2022/09/13 02:16:07;;;;;;;4.28;3.88;;;;;22.50;99881.00;;;;2070465;28;20222;-55
2022/09/13 02:17:16;;;;;;;4.35;3.95;;;;;23.00;99888.00;;;;2081430;28;20251;-54
2022/09/13 02:18:23;;;;;;;5.28;4.15;;;;;23.00;99878.00;;;;2086705;28;20213;-54
2022/09/13 02:19:26;;;;;;;3.80;3.50;;;;;23.00;99887.00;;;;2086645;28;20218;-54
2022/09/13 02:20:29;;;;;;;4.30;3.90;;;;;23.00;99887.00;;;;2085859;28;20374;-54
2022/09/13 02:21:31;;;;;;;4.20;3.90;;;;;23.00;99879.00;;;;2073797;28;20218;-55
2022/09/13 02:22:34;;;;;;;4.30;3.90;;;;;23.00;99889.00;;;;2093016;28;20896;-54
2022/09/13 02:23:38;;;;;;;3.90;3.60;;;;;23.00;99886.00;;;;2094861;28;20227;-55
2022/09/13 02:24:41;;;;;;;4.40;4.00;;;;;22.90;99885.00;;;;2094776;28;20273;-55
2022/09/13 02:25:41;;;;;;;5.20;4.32;;;;;23.00;99882.00;;;;2078906;28;20240;-56
2022/09/13 02:26:44;;;;;;;4.70;3.87;;;;;23.00;99876.00;;;;2086914;28;20623;-55
2022/09/13 02:27:46;;;;;;;3.90;3.60;;;;;23.00;99881.00;;;;2089650;28;20216;-54
2022/09/13 02:28:50;;;;;;;4.30;3.90;;;;;23.00;99888.00;;;;2086170;28;20217;-55
2022/09/13 02:29:54;;;;;;;4.57;3.92;;;;;23.00;99886.00;;;;2094133;28;20687;-54
2022/09/13 02:30:54;;;;;;;4.00;3.60;;;;;23.00;99866.00;;;;2094615;28;20220;-55
2022/09/13 02:31:56;;;;;;;4.13;3.83;;;;;23.00;99882.00;;;;2086576;28;20209;-54
2022/09/13 02:33:04;;;;;;;4.10;3.80;;;;;23.00;99903.00;;;;2095023;28;20307;-54
2022/09/13 02:34:08;;;;;;;4.15;3.78;;;;;23.00;99879.00;;;;2093789;28;20271;-54
2022/09/13 02:35:14;;;;;;;5.25;3.90;;;;;23.00;99878.00;;;;2094147;28;20219;-54
2022/09/13 02:36:21;;;;;;;3.75;3.20;;;;;23.00;99874.00;;;;2093935;28;20220;-54
2022/09/13 02:37:23;;;;;;;8.25;3.80;;;;;22.90;99882.00;;;;2082376;28;20237;-55
2022/09/13 02:38:28;;;;;;;3.72;3.28;;;;;23.00;99872.00;;;;2078044;28;20228;-54
2022/09/13 02:39:28;;;;;;;4.05;3.65;;;;;22.90;99879.00;;;;2082838;28;20676;-54
2022/09/13 02:40:31;;;;;;;3.63;3.33;;;;;23.00;99872.00;;;;2069990;28;20214;-54
2022/09/13 02:41:34;;;;;;;3.60;3.30;;;;;23.00;99882.00;;;;2079150;28;20220;-54
2022/09/13 02:42:42;;;;;;;4.10;3.70;;;;;22.90;99886.00;;;;2082904;28;20220;-55
2022/09/13 02:43:45;;;;;;;4.20;3.80;;;;;22.90;99881.00;;;;2078233;28;20217;-57
2022/09/13 02:44:48;;;;;;;3.35;3.05;;;;;23.00;99878.00;;;;2079727;28;20660;-54
2022/09/13 02:46:05;;;;;;;3.83;3.40;;;;;23.00;99870.00;;;;2086828;28;20215;-54
2022/09/13 02:47:10;;;;;;;3.55;3.25;;;;;23.00;99887.00;;;;2083279;28;20311;-53
2022/09/13 02:48:27;;;;;;;3.70;3.40;;;;;23.00;99872.00;;;;2088057;28;20285;-54
2022/09/13 02:49:30;;;;;;;3.60;3.30;;;;;23.00;99865.00;;;;2080827;28;20300;-54
2022/09/13 02:51:05;;;;;;;4.40;4.00;;;;;22.90;99862.00;;;;2087784;28;20283;-54
2022/09/13 02:52:09;;;;;;;3.95;3.55;;;;;23.00;99864.00;;;;2081859;28;20232;-55
2022/09/13 02:53:27;;;;;;;3.90;3.50;;;;;23.00;99864.00;;;;2091287;28;20590;-54
2022/09/13 02:54:51;;;;;;;3.75;3.45;;;;;23.00;99862.00;;;;2089121;28;20220;-54
2022/09/13 02:55:58;;;;;;;3.75;3.45;;;;;23.00;99864.00;;;;2093143;28;20315;-55
2022/09/13 02:57:05;;;;;;;3.70;3.40;;;;;22.90;99872.00;;;;2088134;28;20298;-54
2022/09/13 02:58:13;;;;;;;3.80;3.40;;;;;23.00;99865.00;;;;2086435;28;20221;-54
2022/09/13 02:59:20;;;;;;;3.40;3.20;;;;;23.00;99866.00;;;;2094483;28;20680;-54
2022/09/13 03:00:21;;;;;;;3.63;3.33;;;;;22.90;99841.00;;;;2084507;28;20228;-55
2022/09/13 03:01:21;;;;;;;4.77;3.70;;;;;22.90;99865.00;;;;2077680;28;20249;-54
2022/09/13 03:02:22;;;;;;;3.60;3.30;;;;;23.00;99874.00;;;;2086651;28;20212;-54
2022/09/13 03:03:22;;;;;;;3.73;3.27;;;;;23.00;99876.00;;;;2095121;28;20694;-55
2022/09/13 03:04:23;;;;;;;3.80;3.50;;;;;23.00;99878.00;;;;2078244;28;20582;-54
2022/09/13 03:05:23;;;;;;;4.90;3.90;;;;;23.00;99880.00;;;;2086860;28;20692;-54
2022/09/13 03:06:24;;;;;;;3.60;3.30;;;;;22.90;99880.00;;;;2095358;28;20562;-54
2022/09/13 03:07:24;;;;;;;3.50;3.20;;;;;22.90;99874.00;;;;2094712;28;20645;-54
2022/09/13 03:08:25;;;;;;;3.50;3.20;;;;;23.00;99883.00;;;;2095535;28;21003;-53
2022/09/13 03:09:25;;;;;;;3.90;3.60;;;;;22.90;99886.00;;;;2094869;28;20261;-54
2022/09/13 03:10:26;;;;;;;3.53;3.23;;;;;23.00;99878.00;;;;2087235;28;20708;-55
2022/09/13 03:11:49;;;;;;;2.88;2.67;;;;;23.00;99883.00;;;;2086615;28;20271;-54
2022/09/13 03:13:34;;;;;;;3.80;3.40;;;;;23.00;99876.00;;;;2086197;28;20306;-54
2022/09/13 03:14:49;;;;;;;3.67;3.38;;;;;22.90;99879.00;;;;2085928;28;20255;-55
2022/09/13 03:15:57;;;;;;;3.10;2.80;;;;;22.90;99884.00;;;;2092999;28;20216;-54
2022/09/13 03:17:14;;;;;;;3.70;3.40;;;;;22.90;99879.00;;;;2087853;28;20267;-54
2022/09/13 03:18:20;;;;;;;3.22;2.92;;;;;22.90;99883.00;;;;2088986;28;20243;-54
2022/09/13 03:20:09;;;;;;;2.92;2.63;;;;;22.90;99890.00;;;;2086081;28;20243;-54
2022/09/13 03:21:46;;;;;;;3.40;3.10;;;;;22.90;99880.00;;;;2090031;28;20567;-54
2022/09/13 03:23:12;;;;;;;3.78;3.40;;;;;22.90;99891.00;;;;2095197;28;20254;-54
2022/09/13 03:24:23;;;;;;;3.22;3.03;;;;;22.90;99882.00;;;;2094362;28;20235;-55
2022/09/13 03:25:57;;;;;;;3.20;3.00;;;;;22.90;99889.00;;;;2094335;28;20216;-55
2022/09/13 03:27:03;;;;;;;3.00;2.70;;;;;23.00;99894.00;;;;2094707;28;20597;-54
2022/09/13 03:28:28;;;;;;;2.90;2.65;;;;;22.90;99888.00;;;;2093988;28;20239;-54
2022/09/13 03:29:50;;;;;;;2.90;2.70;;;;;22.90;99886.00;;;;2094902;28;20208;-54
2022/09/13 03:30:55;;;;;;;3.30;3.03;;;;;22.90;99873.00;;;;2094404;28;20615;-54
2022/09/13 03:32:37;;;;;;;3.53;3.22;;;;;22.90;99890.00;;;;2094625;28;20891;-55
2022/09/13 03:33:53;;;;;;;3.58;3.13;;;;;22.90;99887.00;;;;2078746;28;20315;-54
2022/09/13 03:35:01;;;;;;;3.50;3.20;;;;;22.90;99881.00;;;;2094787;28;20203;-55
2022/09/13 03:36:11;;;;;;;3.60;2.88;;;;;23.00;99896.00;;;;2095444;28;20208;-54
2022/09/13 03:37:27;;;;;;;3.30;3.00;;;;;23.00;99930.00;;;;2094556;28;20337;-55
2022/09/13 03:38:32;;;;;;;3.20;2.90;;;;;23.00;99900.00;;;;2081278;28;20209;-55
2022/09/13 03:39:38;;;;;;;3.75;3.03;;;;;23.00;99894.00;;;;2078882;28;20288;-55
2022/09/13 03:40:44;;;;;;;3.40;3.10;;;;;22.90;99878.00;;;;2083002;28;20217;-54
2022/09/13 03:41:48;;;;;;;3.20;2.90;;;;;23.00;99890.00;;;;2081010;28;20205;-54
2022/09/13 03:42:57;;;;;;;3.65;2.80;;;;;23.00;99892.00;;;;2087271;28;20209;-54
2022/09/13 03:43:59;;;;;;;3.15;2.85;;;;;22.90;99888.00;;;;2084057;28;20213;-54
2022/09/13 03:45:00;;;;;;;3.05;2.85;;;;;22.90;99876.00;;;;2077992;28;20217;-54
2022/09/13 03:46:05;;;;;;;3.40;3.10;;;;;23.00;99853.00;;;;2077984;28;20224;-54
2022/09/13 03:47:05;;;;;;;2.95;2.75;;;;;22.90;99878.00;;;;2078523;28;20240;-54
2022/09/13 03:48:06;;;;;;;2.80;2.53;;;;;22.90;99876.00;;;;2086126;28;20729;-54
2022/09/13 03:49:08;;;;;;;3.30;3.00;;;;;22.90;99884.00;;;;2086487;28;20581;-55
2022/09/13 03:50:08;;;;;;;3.70;3.40;;;;;22.90;99844.00;;;;2078202;28;20225;-54
2022/09/13 03:51:09;;;;;;;3.57;3.27;;;;;22.90;99872.00;;;;2078467;28;20217;-54
2022/09/13 03:52:10;;;;;;;3.00;2.70;;;;;22.90;99880.00;;;;2078150;28;20213;-54
2022/09/13 03:53:11;;;;;;;3.13;2.83;;;;;23.00;99879.00;;;;2070114;28;20297;-54
2022/09/13 03:54:28;;;;;;;3.10;2.90;;;;;22.90;99875.00;;;;2074903;28;20491;-53
2022/09/13 03:55:29;;;;;;;2.72;2.53;;;;;22.90;99867.00;;;;2086245;28;20334;-54
2022/09/13 03:56:29;;;;;;;2.80;2.60;;;;;22.90;99871.00;;;;2086334;28;20789;-53
2022/09/13 03:57:30;;;;;;;3.20;3.00;;;;;22.90;99872.00;;;;2085290;28;20213;-53
2022/09/13 03:58:30;;;;;;;3.37;2.93;;;;;22.90;99873.00;;;;2087203;28;20250;-55
2022/09/13 03:59:30;;;;;;;3.07;2.80;;;;;22.90;99871.00;;;;2086979;28;20213;-55
2022/09/13 04:00:31;;;;;;;3.27;2.90;;;;;22.90;99861.00;;;;2086956;28;20205;-54
2022/09/13 04:01:31;;;;;;;3.37;3.00;;;;;22.90;99865.00;;;;2086837;28;20212;-54
2022/09/13 04:02:32;;;;;;;2.83;2.50;;;;;22.90;99868.00;;;;2087011;28;20212;-53
2022/09/13 04:03:32;;;;;;;3.27;3.03;;;;;22.90;99857.00;;;;2086870;28;20205;-55
2022/09/13 04:04:32;;;;;;;2.80;2.60;;;;;22.90;99860.00;;;;2086349;28;20225;-55
2022/09/13 04:05:33;;;;;;;2.80;2.60;;;;;22.90;99862.00;;;;2087005;28;20208;-55
2022/09/13 04:06:33;;;;;;;3.30;3.00;;;;;22.90;99874.00;;;;2086947;28;20228;-55
2022/09/13 04:07:34;;;;;;;2.83;2.63;;;;;22.90;99865.00;;;;2085780;28;20215;-54
2022/09/13 04:08:34;;;;;;;2.97;2.77;;;;;22.90;99867.00;;;;2087217;28;20208;-54
2022/09/13 04:09:34;;;;;;;3.70;3.07;;;;;22.90;99856.00;;;;2087054;28;20225;-55
2022/09/13 04:10:35;;;;;;;5.93;2.73;;;;;22.90;99862.00;;;;2089503;28;20204;-55
2022/09/13 04:11:36;;;;;;;3.87;3.07;;;;;22.90;99862.00;;;;2094626;28;20204;-55
2022/09/13 04:12:36;;;;;;;3.53;2.97;;;;;22.90;99862.00;;;;2094495;28;20228;-54
2022/09/13 04:13:37;;;;;;;2.90;2.70;;;;;22.90;99864.00;;;;2095253;28;20215;-54
2022/09/13 04:14:37;;;;;;;3.03;2.83;;;;;22.90;99851.00;;;;2092683;28;20212;-55
2022/09/13 04:15:38;;;;;;;3.07;2.73;;;;;22.90;99869.00;;;;2086906;28;20213;-55
2022/09/13 04:16:38;;;;;;;3.30;3.00;;;;;22.90;99855.00;;;;2087161;28;20217;-54
2022/09/13 04:17:38;;;;;;;3.03;2.83;;;;;22.90;99853.00;;;;2084787;28;20223;-55
2022/09/13 04:18:39;;;;;;;3.20;2.90;;;;;22.90;99862.00;;;;2087232;28;20695;-53
2022/09/13 04:19:39;;;;;;;3.23;3.00;;;;;22.90;99861.00;;;;2086663;28;21138;-53
2022/09/13 04:20:39;;;;;;;3.60;3.30;;;;;22.90;99861.00;;;;2086982;28;20220;-53
2022/09/13 04:21:40;;;;;;;3.30;2.60;;;;;22.90;99866.00;;;;2087019;28;20728;-54
2022/09/13 04:22:41;;;;;;;3.20;2.90;;;;;22.90;99857.00;;;;2086883;28;20238;-55
2022/09/13 04:23:41;;;;;;;3.20;2.90;;;;;22.90;99855.00;;;;2086923;28;20217;-54
2022/09/13 04:24:43;;;;;;;3.50;3.20;;;;;22.90;99855.00;;;;2087193;28;20227;-54
2022/09/13 04:25:43;;;;;;;5.38;3.20;;;;;22.90;99860.00;;;;2095332;28;20208;-55
2022/09/13 04:26:44;;;;;;;2.80;2.60;;;;;22.90;99853.00;;;;2095193;28;20235;-54
2022/09/13 04:27:44;;;;;;;3.30;2.75;;;;;22.90;99853.00;;;;2093196;28;20247;-55
2022/09/13 04:28:45;;;;;;;4.27;2.83;;;;;22.90;99856.00;;;;2094515;28;20216;-54
2022/09/13 04:29:45;;;;;;;3.00;2.80;;;;;22.90;99853.00;;;;2095224;28;20235;-54
2022/09/13 04:30:46;;;;;;;2.80;2.60;;;;;22.90;99853.00;;;;2095089;28;20212;-54
2022/09/13 04:31:46;;;;;;;2.90;2.70;;;;;22.90;99856.00;;;;2095196;28;20216;-55
2022/09/13 04:32:47;;;;;;;3.17;2.97;;;;;22.90;99862.00;;;;2095109;28;20457;-54
2022/09/13 04:33:48;;;;;;;3.30;3.00;;;;;22.90;99854.00;;;;2095081;28;20215;-55
2022/09/13 04:34:48;;;;;;;2.58;2.30;;;;;22.90;99857.00;;;;2095119;28;20250;-54
2022/09/13 04:35:53;;;;;;;3.67;3.13;;;;;22.90;99861.00;;;;2095041;28;20226;-54
2022/09/13 04:36:54;;;;;;;3.20;2.78;;;;;22.90;99853.00;;;;2095066;28;20219;-55
2022/09/13 04:37:55;;;;;;;2.90;2.70;;;;;22.90;99869.00;;;;2094246;28;20212;-54
2022/09/13 04:38:56;;;;;;;3.50;3.20;;;;;22.90;99861.00;;;;2095077;28;20626;-54
2022/09/13 04:39:57;;;;;;;2.90;2.53;;;;;22.90;99865.00;;;;2095124;28;20293;-54
2022/09/13 04:40:57;;;;;;;3.50;2.70;;;;;22.90;99861.00;;;;2095169;28;20227;-54
2022/09/13 04:41:58;;;;;;;2.67;2.47;;;;;22.90;99861.00;;;;2095275;28;20231;-54
2022/09/13 04:42:59;;;;;;;2.97;2.73;;;;;22.90;99861.00;;;;2095092;28;20207;-54
2022/09/13 04:44:00;;;;;;;2.80;2.60;;;;;22.90;99859.00;;;;2094671;28;20222;-60
2022/09/13 04:45:00;;;;;;;3.20;2.70;;;;;22.90;99868.00;;;;2089843;28;20224;-54
2022/09/13 04:46:01;;;;;;;3.30;3.00;;;;;22.90;99868.00;;;;2086262;28;20466;-54
2022/09/13 04:47:01;;;;;;;2.87;2.50;;;;;22.90;99861.00;;;;2086895;28;20219;-55
2022/09/13 04:48:02;;;;;;;2.63;2.43;;;;;22.90;99880.00;;;;2086239;28;20217;-55
2022/09/13 04:49:02;;;;;;;3.30;2.43;;;;;22.90;99878.00;;;;2087008;28;20711;-53
2022/09/13 04:50:03;;;;;;;3.13;2.83;;;;;22.90;99879.00;;;;2087215;28;20216;-54
2022/09/13 04:51:03;;;;;;;3.07;2.33;;;;;22.90;99885.00;;;;2095230;28;20633;-55
2022/09/13 04:52:04;;;;;;;2.93;2.53;;;;;22.90;99873.00;;;;2094551;28;20219;-55
2022/09/13 04:53:04;;;;;;;2.87;2.60;;;;;22.90;99870.00;;;;2094918;28;20212;-55
2022/09/13 04:54:05;;;;;;;3.20;2.90;;;;;22.90;99871.00;;;;2094650;28;20212;-54
2022/09/13 04:55:05;;;;;;;2.67;2.47;;;;;22.90;99871.00;;;;2094401;28;20212;-54
2022/09/13 04:56:06;;;;;;;3.03;2.83;;;;;22.90;99876.00;;;;2094321;28;20294;-55
2022/09/13 04:57:07;;;;;;;3.30;3.00;;;;;22.90;99878.00;;;;2094128;28;20207;-55
2022/09/13 04:58:07;;;;;;;2.50;2.30;;;;;22.90;99875.00;;;;2094718;28;20200;-55
2022/09/13 04:59:09;;;;;;;2.77;2.57;;;;;22.90;99882.00;;;;2095444;28;20227;-55
2022/09/13 05:00:10;;;;;;;2.92;2.63;;;;;22.90;99877.00;;;;2085986;28;20307;-54
2022/09/13 05:01:10;;;;;;;4.93;2.77;;;;;22.90;99886.00;;;;2087323;28;20212;-54
2022/09/13 05:02:11;;;;;;;2.67;2.47;;;;;22.90;99884.00;;;;2095265;28;20220;-55
2022/09/13 05:03:11;;;;;;;4.37;3.00;;;;;22.90;99763.00;;;;2095051;28;20240;-54
2022/09/13 05:04:12;;;;;;;3.67;2.57;;;;;22.90;99890.00;;;;2095679;28;20224;-54
2022/09/13 05:05:12;;;;;;;2.70;2.50;;;;;22.90;99886.00;;;;2088097;28;20213;-55
2022/09/13 05:06:16;;;;;;;2.37;2.17;;;;;22.90;99883.00;;;;2087706;28;20235;-54
2022/09/13 05:07:17;;;;;;;2.60;2.40;;;;;22.90;99882.00;;;;2086894;28;20212;-55
2022/09/13 05:08:17;;;;;;;2.73;2.53;;;;;22.80;99872.00;;;;2087211;28;20587;-55
2022/09/13 05:09:17;;;;;;;2.43;2.23;;;;;22.90;99873.00;;;;2092072;28;20204;-54
2022/09/13 05:10:18;;;;;;;3.20;2.67;;;;;22.90;99869.00;;;;2090507;28;20216;-54
2022/09/13 05:11:18;;;;;;;2.70;2.50;;;;;22.90;99856.00;;;;2087793;28;20347;-53
2022/09/13 05:12:18;;;;;;;2.57;2.37;;;;;22.90;99867.00;;;;2087600;28;20627;-53
2022/09/13 05:13:19;;;;;;;3.40;2.57;;;;;22.90;99875.00;;;;2087675;28;21090;-54
2022/09/13 05:14:19;;;;;;;3.67;3.00;;;;;22.90;99869.00;;;;2087392;28;20917;-53
2022/09/13 05:15:19;;;;;;;3.00;2.57;;;;;22.90;99874.00;;;;2087817;28;20263;-54
2022/09/13 05:16:23;;;;;;;2.50;2.30;;;;;22.90;99882.00;;;;2087602;28;20591;-53
2022/09/13 05:17:23;;;;;;;2.80;2.60;;;;;22.90;99871.00;;;;2086511;28;20255;-55
2022/09/13 05:18:27;;;;;;;2.97;2.67;;;;;22.90;99869.00;;;;2087258;28;20220;-54
2022/09/13 05:19:28;;;;;;;3.03;2.75;;;;;22.90;99874.00;;;;2087605;28;21102;-54
2022/09/13 05:20:28;;;;;;;2.43;2.20;;;;;22.90;99870.00;;;;2087805;28;20221;-53
2022/09/13 05:21:29;;;;;;;2.83;2.60;;;;;22.40;99868.00;;;;2088326;28;20247;-54
2022/09/13 05:22:29;;;;;;;3.17;2.70;;;;;22.50;99890.00;;;;2089735;28;20221;-54
2022/09/13 05:23:30;;;;;;;4.47;2.83;;;;;22.90;99883.00;;;;2096472;28;20631;-54
2022/09/13 05:24:30;;;;;;;3.17;2.87;;;;;22.90;99899.00;;;;2096265;28;20768;-54
2022/09/13 05:25:30;;;;;;;2.87;2.50;;;;;22.90;99879.00;;;;2096552;28;20473;-54
2022/09/13 05:26:31;;;;;;;3.00;2.70;;;;;22.90;99876.00;;;;2096421;28;20226;-54